Time;durP1;ratioP1;P1;durP2;ratioP2;P2;SDS_P1;SDS_P2;PMS_P1;PMS_P2;Temp;Humidity;BMP_temperature;BMP_pressure;BME280_temperature;BME280_humidity;BME280_pressure;Samples;Min_cycle;Max_cycle;Signal;HPM_P1;HPM_P2
2023/10/14 00:00:48;;;;;;;8.05;0.68;;;14.80;99.90;;;14.16;100.00;101107.53;4135215;28;20026;-75
2023/10/14 00:02:51;;;;;;;2.67;0.70;;;14.90;99.90;;;14.17;100.00;101113.69;4135589;28;20026;-75
2023/10/14 00:04:53;;;;;;;10.30;1.50;;;14.90;99.90;;;14.18;100.00;101113.53;4147330;28;20393;-75
2023/10/14 00:06:57;;;;;;;5.22;0.60;;;14.90;99.90;;;14.18;100.00;101118.00;4152113;28;20117;-75
2023/10/14 00:08:58;;;;;;;3.70;0.80;;;14.90;99.90;;;14.14;100.00;101120.16;4152324;28;20582;-75
2023/10/14 00:11:06;;;;;;;5.07;1.17;;;14.80;99.90;;;14.10;100.00;101124.13;4134553;28;20050;-75
2023/10/14 00:13:16;;;;;;;3.13;0.65;;;14.80;99.90;;;14.11;100.00;101119.66;4154135;28;20033;-75
2023/10/14 00:15:17;;;;;;;4.50;1.13;;;14.80;99.90;;;14.08;100.00;101134.09;4168810;28;20017;-75
2023/10/14 00:17:18;;;;;;;4.40;0.90;;;14.80;99.90;;;14.04;100.00;101145.19;4151027;28;20038;-75
2023/10/14 00:19:23;;;;;;;4.13;0.95;;;14.80;99.90;;;14.05;100.00;101141.56;4168190;28;20080;-75
2023/10/14 00:21:26;;;;;;;6.40;1.30;;;14.80;99.90;;;14.01;100.00;101142.91;4134455;28;20035;-75
2023/10/14 00:23:27;;;;;;;2.58;0.90;;;14.80;99.90;;;14.02;100.00;101147.19;4149505;28;20026;-75
2023/10/14 00:25:28;;;;;;;4.03;1.10;;;14.70;99.90;;;14.01;100.00;101154.31;4168304;28;20507;-75
2023/10/14 00:27:28;;;;;;;5.80;1.70;;;14.70;99.90;;;14.02;100.00;101149.84;4153951;28;20148;-75
2023/10/14 00:29:29;;;;;;;4.07;1.15;;;14.70;99.90;;;14.05;100.00;101160.97;4154235;28;20033;-75
2023/10/14 00:31:30;;;;;;;4.35;1.40;;;14.70;99.90;;;14.02;100.00;101161.28;4171702;28;20049;-75
2023/10/14 00:33:34;;;;;;;3.97;0.70;;;14.70;99.90;;;13.94;100.00;101160.47;4171639;28;20068;-75
2023/10/14 00:35:41;;;;;;;4.18;1.10;;;14.70;99.90;;;13.92;100.00;101160.63;4171416;28;20068;-75
2023/10/14 00:37:41;;;;;;;5.70;1.05;;;14.60;99.90;;;13.87;100.00;101170.91;4171481;28;20435;-75
2023/10/14 00:39:43;;;;;;;8.88;1.52;;;14.60;99.90;;;13.82;100.00;101170.59;4154060;28;20026;-75
2023/10/14 00:41:50;;;;;;;4.28;0.98;;;14.50;99.90;;;13.81;100.00;101175.06;4154185;28;20022;-75
2023/10/14 00:43:51;;;;;;;6.45;1.90;;;14.50;99.90;;;13.75;100.00;101173.09;4154431;28;20085;-75
2023/10/14 00:45:52;;;;;;;6.20;1.27;;;14.50;99.90;;;13.73;100.00;101185.69;4171555;28;20472;-75
2023/10/14 00:47:53;;;;;;;6.47;1.33;;;14.50;99.90;;;13.69;100.00;101192.31;4171477;28;20041;-75
2023/10/14 00:49:55;;;;;;;4.03;1.10;;;14.40;99.90;;;13.68;100.00;101193.28;4153797;28;20041;-75
2023/10/14 00:52:00;;;;;;;7.03;1.63;;;14.40;99.90;;;13.65;100.00;101187.50;4153505;28;20017;-75
2023/10/14 00:54:02;;;;;;;6.78;1.73;;;14.40;99.90;;;13.68;100.00;101187.97;4153782;28;20030;-75
2023/10/14 00:56:03;;;;;;;7.10;1.52;;;14.40;99.90;;;13.63;100.00;101190.31;4153858;28;20021;-75
2023/10/14 00:58:05;;;;;;;6.45;1.67;;;14.40;99.90;;;13.62;100.00;101190.50;4153694;28;20030;-75
2023/10/14 01:00:10;;;;;;;5.97;1.63;;;14.30;99.90;;;13.62;100.00;101198.44;4171270;28;20033;-75
2023/10/14 01:02:11;;;;;;;6.00;1.48;;;14.30;99.90;;;13.62;100.00;101201.09;4154131;28;20593;-75
2023/10/14 01:04:18;;;;;;;6.90;1.27;;;14.30;99.90;;;13.59;100.00;101202.22;4171382;28;20060;-75
2023/10/14 01:06:23;;;;;;;8.63;1.60;;;14.30;99.90;;;13.55;100.00;101206.22;4170192;28;20034;-76
2023/10/14 01:08:25;;;;;;;10.30;2.15;;;14.30;99.90;;;13.47;100.00;101208.03;4154603;28;20026;-75
2023/10/14 01:10:27;;;;;;;11.68;2.25;;;14.20;99.90;;;13.51;100.00;101214.66;4137414;28;20060;-75
2023/10/14 01:12:38;;;;;;;9.18;2.78;;;14.20;99.90;;;13.49;100.00;101209.53;4136836;28;20057;-75
2023/10/14 01:14:41;;;;;;;7.85;2.10;;;14.20;99.90;;;13.45;100.00;101221.44;4151689;28;20098;-75
2023/10/14 01:16:45;;;;;;;7.07;2.20;;;14.20;99.90;;;13.43;100.00;101223.44;4165860;28;20028;-75
2023/10/14 01:18:47;;;;;;;13.15;2.65;;;14.20;99.90;;;13.40;100.00;101220.25;4141877;28;20095;-75
2023/10/14 01:20:48;;;;;;;13.38;2.13;;;14.10;99.90;;;13.38;100.00;101238.97;4141522;28;20521;-75
2023/10/14 01:23:06;;;;;;;9.32;1.80;;;14.10;99.90;;;13.27;100.00;101226.03;4154073;28;20037;-75
2023/10/14 01:25:12;;;;;;;8.55;2.53;;;14.00;99.90;;;13.15;100.00;101244.03;4154541;28;20021;-75
2023/10/14 01:27:13;;;;;;;9.63;2.30;;;13.90;99.90;;;13.05;100.00;101238.00;4157951;28;20026;-75
2023/10/14 01:29:15;;;;;;;8.15;1.90;;;13.80;99.90;;;12.93;100.00;101233.16;4154328;28;20029;-75
2023/10/14 01:31:58;;;;;;;8.77;1.45;;;13.70;99.90;;;12.76;100.00;101238.38;4137185;28;20027;-75
2023/10/14 01:34:07;;;;;;;7.93;1.65;;;13.60;99.90;;;12.69;100.00;101247.94;4137707;28;20031;-75
2023/10/14 01:36:08;;;;;;;5.75;1.70;;;13.50;99.90;;;12.61;100.00;101244.41;4155963;28;20076;-75
2023/10/14 01:38:09;;;;;;;10.45;2.58;;;13.40;99.90;;;12.53;100.00;101257.59;4153357;28;20033;-75
2023/10/14 01:42:24;;;;;;;6.60;2.05;;;13.30;99.90;;;12.52;100.00;101255.94;4154102;28;20522;-75
2023/10/14 01:44:26;;;;;;;8.50;1.80;;;13.30;99.90;;;12.52;100.00;101261.22;4136833;28;20042;-75
2023/10/14 01:46:27;;;;;;;7.88;2.20;;;13.20;99.90;;;12.53;100.00;101257.59;4162197;28;20029;-75
2023/10/14 01:48:31;;;;;;;8.18;2.55;;;13.20;99.90;;;12.51;100.00;101260.41;4158247;28;20037;-75
2023/10/14 01:50:33;;;;;;;8.88;2.22;;;13.20;99.90;;;12.51;100.00;101268.34;4153921;28;20030;-75
2023/10/14 01:52:34;;;;;;;12.07;2.78;;;13.20;99.90;;;12.53;100.00;101271.66;4153880;28;20026;-75
2023/10/14 01:54:39;;;;;;;11.82;2.45;;;13.30;99.90;;;12.53;100.00;101261.09;4153869;28;20026;-75
2023/10/14 01:56:42;;;;;;;9.73;2.88;;;13.30;99.90;;;12.58;100.00;101271.19;4163785;28;20025;-76
2023/10/14 01:58:45;;;;;;;7.95;2.17;;;13.30;99.90;;;12.62;100.00;101270.72;4153827;28;20029;-75
2023/10/14 02:00:46;;;;;;;6.65;1.67;;;13.40;99.90;;;12.66;100.00;101274.72;4153965;28;20378;-75
2023/10/14 02:02:48;;;;;;;8.95;1.95;;;13.40;99.90;;;12.69;100.00;101265.66;4153916;28;20026;-75
2023/10/14 02:04:56;;;;;;;9.48;2.05;;;13.40;99.90;;;12.69;100.00;101271.75;4153800;28;20030;-75
2023/10/14 02:07:18;;;;;;;8.63;2.35;;;13.40;99.90;;;12.72;100.00;101276.72;4148924;28;20156;-75
2023/10/14 02:09:18;;;;;;;12.15;2.28;;;13.40;99.90;;;12.74;100.00;101280.06;4169544;28;20504;-75
2023/10/14 02:11:35;;;;;;;6.97;1.58;;;13.40;99.90;;;12.76;100.00;101274.59;4156289;28;20103;-75
2023/10/14 02:13:36;;;;;;;14.57;2.70;;;13.40;99.90;;;12.78;100.00;101277.94;4158899;28;20041;-75
2023/10/14 02:15:37;;;;;;;5.90;1.38;;;13.50;99.90;;;12.76;100.00;101285.19;4170039;28;20029;-75
2023/10/14 02:17:39;;;;;;;11.98;2.63;;;13.50;99.90;;;12.75;100.00;101280.91;4157310;28;20029;-75
2023/10/14 02:19:41;;;;;;;9.55;2.28;;;13.50;99.90;;;12.78;100.00;101283.25;4147496;28;20515;-75
2023/10/14 02:21:43;;;;;;;6.78;1.63;;;13.50;99.90;;;12.74;100.00;101272.13;4152343;28;20018;-75
2023/10/14 02:23:45;;;;;;;6.88;1.63;;;13.50;99.90;;;12.79;100.00;101287.53;4152285;28;20061;-75
2023/10/14 02:25:45;;;;;;;10.88;2.78;;;13.50;99.90;;;12.78;100.00;101280.59;4169965;28;20113;-75
2023/10/14 02:27:46;;;;;;;10.95;1.88;;;13.50;99.90;;;12.74;100.00;101277.41;4136653;28;20034;-75
2023/10/14 02:29:48;;;;;;;8.57;2.75;;;13.50;99.90;;;12.76;100.00;101279.91;4136028;28;20093;-75
2023/10/14 02:31:49;;;;;;;9.10;1.85;;;13.40;99.90;;;12.71;100.00;101282.19;4153446;28;20030;-76
2023/10/14 02:33:49;;;;;;;9.55;1.70;;;13.40;99.90;;;12.70;100.00;101281.34;4153351;28;20164;-75
2023/10/14 02:35:50;;;;;;;10.00;2.17;;;13.40;99.90;;;12.67;100.00;101296.72;4153508;28;20026;-75
2023/10/14 02:37:53;;;;;;;6.18;1.63;;;13.40;99.90;;;12.60;100.00;101285.91;4153182;28;20049;-75
2023/10/14 02:39:54;;;;;;;10.05;2.20;;;13.40;99.90;;;12.60;100.00;101285.13;4153291;28;20029;-75
2023/10/14 02:41:59;;;;;;;7.68;1.90;;;13.30;99.90;;;12.62;100.00;101289.25;4153281;28;20512;-75
2023/10/14 02:46:19;;;;;;;10.63;2.03;;;13.40;99.90;;;12.68;98.89;101290.44;4157995;28;20108;-75
2023/10/14 02:48:20;;;;;;;7.20;1.52;;;13.40;99.90;;;12.67;98.22;101289.63;4162911;28;20057;-75
2023/10/14 02:50:24;;;;;;;7.60;1.90;;;13.40;99.90;;;12.71;97.86;101298.91;4153802;28;20100;-75
2023/10/14 02:52:29;;;;;;;9.77;2.50;;;13.40;99.90;;;12.74;95.45;101290.66;4152834;28;20065;-75
2023/10/14 02:54:34;;;;;;;15.32;2.97;;;13.40;99.90;;;12.73;95.20;101288.16;4153090;28;20756;-75
2023/10/14 02:56:55;;;;;;;8.20;1.80;;;13.40;99.90;;;12.74;95.58;101295.13;4144237;28;20021;-75
2023/10/14 02:58:55;;;;;;;7.13;2.80;;;13.40;99.90;;;12.76;96.16;101293.13;4153092;28;20052;-75
2023/10/14 03:00:58;;;;;;;7.43;2.03;;;13.40;99.90;;;12.76;96.99;101293.13;4152988;28;20018;-75
2023/10/14 03:03:02;;;;;;;6.53;1.48;;;13.40;99.90;;;12.76;97.93;101301.06;4152967;28;20413;-75
2023/10/14 03:07:07;;;;;;;11.00;2.90;;;13.40;99.90;;;12.72;99.46;101299.75;4164075;28;20041;-75
2023/10/14 03:09:09;;;;;;;9.02;1.58;;;13.40;99.90;;;12.74;99.78;101303.06;4160894;28;20412;-75
2023/10/14 03:11:16;;;;;;;8.13;1.73;;;13.40;99.90;;;12.74;100.00;101295.97;4152764;28;20053;-75
2023/10/14 03:13:19;;;;;;;8.50;2.25;;;13.50;99.90;;;12.72;100.00;101289.16;4152798;28;20030;-75
2023/10/14 03:15:22;;;;;;;6.97;1.33;;;13.40;99.90;;;12.71;100.00;101298.06;4152958;28;20401;-76
2023/10/14 03:17:39;;;;;;;13.70;1.95;;;13.40;99.90;;;12.71;100.00;101300.72;4149578;28;20022;-75
2023/10/14 03:19:40;;;;;;;7.95;2.22;;;13.40;99.90;;;12.68;100.00;101303.69;4166542;28;20029;-75
2023/10/14 03:21:58;;;;;;;10.02;1.90;;;13.40;99.90;;;12.69;100.00;101310.66;4152479;28;20528;-75
2023/10/14 03:23:59;;;;;;;8.32;1.52;;;13.40;99.90;;;12.69;99.84;101314.09;4137684;28;20375;-75
2023/10/14 03:26:12;;;;;;;4.28;1.60;;;13.40;99.90;;;12.71;100.00;101316.59;4154285;28;20033;-75
2023/10/14 03:28:19;;;;;;;6.68;1.77;;;13.40;99.90;;;12.69;100.00;101311.44;4120608;28;20135;-75
2023/10/14 03:30:21;;;;;;;9.57;1.83;;;13.40;99.90;;;12.67;100.00;101312.59;4152687;28;20076;-75
2023/10/14 03:32:32;;;;;;;7.70;1.67;;;13.40;99.90;;;12.66;100.00;101313.59;4152581;28;20397;-75
2023/10/14 03:34:33;;;;;;;5.25;1.45;;;13.40;99.90;;;12.63;100.00;101327.16;4152572;28;20478;-75
2023/10/14 03:36:34;;;;;;;6.65;2.30;;;13.30;99.90;;;12.59;100.00;101321.31;4159898;28;20025;-75
2023/10/14 03:42:54;;;;;;;9.20;1.52;;;13.30;99.90;;;12.52;100.00;101330.03;4136675;28;20052;-75
2023/10/14 03:44:58;;;;;;;8.80;1.63;;;13.20;99.90;;;12.52;100.00;101330.84;4152523;28;20481;-75
2023/10/14 03:47:02;;;;;;;4.68;1.33;;;13.20;99.90;;;12.53;100.00;101331.69;4161702;28;20031;-75
2023/10/14 03:49:20;;;;;;;6.45;1.58;;;13.20;99.90;;;12.54;100.00;101341.31;4152489;28;20065;-75
2023/10/14 03:51:27;;;;;;;7.95;2.10;;;13.20;99.90;;;12.53;100.00;101329.88;4136953;28;20034;-75
2023/10/14 03:53:33;;;;;;;5.82;1.67;;;13.20;99.90;;;12.56;100.00;101347.28;4135480;28;20038;-75
2023/10/14 03:55:34;;;;;;;6.60;2.35;;;13.20;99.90;;;12.57;100.00;101348.94;4152436;28;20022;-75
2023/10/14 03:57:37;;;;;;;9.77;1.95;;;13.30;99.90;;;12.58;100.00;101350.59;4160797;28;20068;-75
2023/10/14 03:59:38;;;;;;;8.73;2.15;;;13.30;99.90;;;12.60;100.00;101359.22;4152425;28;20026;-75
2023/10/14 04:03:39;;;;;;;5.35;1.77;;;13.30;99.90;;;12.63;100.00;101358.91;4135074;28;20022;-75
2023/10/14 04:05:52;;;;;;;4.50;1.70;;;13.30;99.90;;;12.65;100.00;101359.56;4152305;28;20042;-75
2023/10/14 04:07:54;;;;;;;6.20;2.22;;;13.30;99.90;;;12.66;100.00;101355.97;4152330;28;20132;-76
2023/10/14 04:09:58;;;;;;;4.03;1.40;;;13.30;99.90;;;12.66;100.00;101364.69;4168556;28;20034;-75
2023/10/14 04:12:01;;;;;;;11.10;2.13;;;13.40;99.90;;;12.66;100.00;101369.19;4168445;28;20505;-75
2023/10/14 04:14:02;;;;;;;7.80;1.65;;;13.30;99.90;;;12.64;100.00;101360.56;4158936;28;20038;-75
2023/10/14 04:16:07;;;;;;;11.27;2.55;;;13.40;99.90;;;12.65;100.00;101367.53;4148052;28;20049;-75
2023/10/14 04:18:12;;;;;;;;;;;13.30;99.90;;;12.59;100.00;101378.72;4152680;28;20590;-75
2023/10/14 04:20:22;;;;;;;6.82;1.58;;;13.30;99.90;;;12.60;100.00;101372.44;4144225;28;19910;-75
2023/10/14 04:26:34;;;;;;;10.68;2.35;;;13.30;99.90;;;12.60;100.00;101375.09;4141264;28;20057;-75
2023/10/14 04:28:39;;;;;;;7.28;1.50;;;13.30;99.90;;;12.59;100.00;101370.78;4168530;28;20036;-75
2023/10/14 04:30:44;;;;;;;8.55;2.20;;;13.30;99.90;;;12.58;100.00;101371.75;4168489;28;20384;-75
2023/10/14 04:32:48;;;;;;;8.30;1.90;;;13.30;99.90;;;12.58;100.00;101374.41;4168270;28;20029;-75
2023/10/14 04:34:49;;;;;;;7.78;1.90;;;13.30;99.90;;;12.59;100.00;101381.38;4168514;28;20105;-75
2023/10/14 04:36:56;;;;;;;8.75;2.55;;;13.30;99.90;;;12.61;100.00;101384.69;4150645;28;20033;-75
2023/10/14 04:39:15;;;;;;;8.07;1.92;;;13.30;99.90;;;12.58;100.00;101377.03;4154453;28;20440;-75
2023/10/14 04:41:24;;;;;;;9.35;1.70;;;13.30;99.90;;;12.59;100.00;101386.66;4137239;28;20036;-75
2023/10/14 04:45:32;;;;;;;6.60;1.55;;;13.30;99.90;;;12.56;100.00;101382.50;4134927;28;20027;-75
2023/10/14 04:47:36;;;;;;;7.80;1.80;;;13.30;99.90;;;12.57;100.00;101383.34;4149200;28;20101;-75
2023/10/14 04:49:37;;;;;;;8.95;2.38;;;13.30;99.90;;;12.59;100.00;101389.31;4151410;28;20116;-75
2023/10/14 04:51:45;;;;;;;5.50;1.85;;;13.30;99.90;;;12.60;100.00;101398.91;4168104;28;20855;-75
2023/10/14 04:53:46;;;;;;;7.65;2.05;;;13.30;99.90;;;12.57;100.00;101391.28;4167969;28;20163;-75
2023/10/14 04:55:47;;;;;;;7.63;2.05;;;13.30;99.90;;;12.59;100.00;101395.44;4150251;28;20022;-75
2023/10/14 05:00:08;;;;;;;6.65;1.80;;;13.30;99.90;;;12.60;100.00;101398.91;4154620;28;20113;-75
2023/10/14 05:02:22;;;;;;;12.52;2.03;;;13.30;99.90;;;12.61;100.00;101405.84;4146139;28;20629;-75
2023/10/14 05:04:29;;;;;;;7.68;1.77;;;13.30;99.90;;;12.60;100.00;101406.84;4134330;28;20161;-75
2023/10/14 05:06:29;;;;;;;9.75;1.83;;;13.30;99.90;;;12.60;100.00;101414.81;4139921;28;20021;-75
2023/10/14 05:09:09;;;;;;;7.97;2.03;;;13.30;99.90;;;12.62;100.00;101411.00;4151892;28;20037;-75
2023/10/14 05:11:00;;;;;;;8.98;2.47;;;13.30;99.90;;;12.61;100.00;101416.44;4150256;28;20080;-75
2023/10/14 05:13:09;;;;;;;11.88;2.17;;;13.30;99.90;;;12.61;100.00;101405.84;4136342;28;20038;-75
2023/10/14 05:15:20;;;;;;;5.70;1.23;;;13.30;99.90;;;12.60;100.00;101418.25;4171003;28;20068;-75
2023/10/14 05:17:25;;;;;;;8.35;2.53;;;13.30;99.90;;;12.61;100.00;101424.38;4154737;28;20030;-75
2023/10/14 05:19:47;;;;;;;10.23;1.83;;;13.30;99.90;;;12.61;100.00;101424.38;4170070;28;20104;-75
2023/10/14 05:21:55;;;;;;;9.35;2.17;;;13.30;99.90;;;12.59;100.00;101421.06;4154360;28;20061;-75
2023/10/14 05:23:56;;;;;;;9.88;2.30;;;13.30;99.90;;;12.59;100.00;101429.00;4154653;28;20064;-75
2023/10/14 05:25:59;;;;;;;6.13;2.00;;;13.30;99.90;;;12.60;100.00;101428.03;4154557;28;20026;-75
2023/10/14 05:28:04;;;;;;;8.23;1.77;;;13.30;99.90;;;12.60;100.00;101428.03;4154623;28;20060;-75
2023/10/14 05:30:06;;;;;;;10.60;2.10;;;13.30;99.90;;;12.59;100.00;101431.66;4144157;28;20030;-75
2023/10/14 05:32:10;;;;;;;15.18;2.72;;;13.30;99.90;;;12.58;100.00;101435.28;4158383;28;20037;-75
2023/10/14 05:34:11;;;;;;;;;;;13.30;99.90;;;12.54;100.00;101428.63;4153330;28;20561;-75
2023/10/14 05:36:12;;;;;;;5.95;1.75;;;13.30;99.90;;;12.56;100.00;101432.78;4137172;28;19909;-75
2023/10/14 05:38:14;;;;;;;11.45;2.20;;;13.30;99.90;;;12.58;100.00;101437.91;4154105;28;20034;-75
2023/10/14 05:40:15;;;;;;;9.27;2.10;;;13.30;99.90;;;12.61;100.00;101446.38;4154407;28;20455;-75
2023/10/14 05:42:17;;;;;;;5.80;1.38;;;13.30;99.90;;;12.58;100.00;101443.22;4154239;28;20036;-75
2023/10/14 05:44:18;;;;;;;13.02;2.72;;;13.30;99.90;;;12.57;100.00;101446.88;4154269;28;20034;-75
2023/10/14 05:46:20;;;;;;;6.18;2.10;;;13.30;99.90;;;12.59;100.00;101445.72;4154360;28;20014;-75
2023/10/14 05:48:30;;;;;;;5.82;1.60;;;13.30;99.90;;;12.57;100.00;101447.66;4154011;28;20026;-75
2023/10/14 05:50:32;;;;;;;7.18;2.10;;;13.30;99.90;;;12.59;100.00;101442.25;4137923;28;20022;-75
2023/10/14 05:52:33;;;;;;;9.38;3.13;;;13.30;99.90;;;12.60;100.00;101452.66;4154047;28;20067;-75
2023/10/14 05:54:34;;;;;;;10.15;2.10;;;13.30;99.90;;;12.57;100.00;101444.22;4154133;28;20494;-75
2023/10/14 05:56:35;;;;;;;12.52;2.15;;;13.30;99.90;;;12.60;100.00;101449.22;4141722;28;20026;-75
2023/10/14 05:58:38;;;;;;;12.48;2.95;;;13.30;99.90;;;12.61;100.00;101450.84;4170441;28;20397;-75
2023/10/14 06:00:41;;;;;;;10.18;1.98;;;13.30;99.90;;;12.61;100.00;101454.34;4170341;28;20031;-75
2023/10/14 06:02:43;;;;;;;6.30;2.15;;;13.30;99.90;;;12.56;100.00;101448.66;4152898;28;20512;-75
2023/10/14 06:04:45;;;;;;;13.13;2.97;;;13.30;99.90;;;12.61;100.00;101464.09;4152710;28;20106;-75
2023/10/14 06:06:46;;;;;;;6.00;2.00;;;13.30;99.90;;;12.56;100.00;101459.25;4170348;28;20024;-75
2023/10/14 06:08:49;;;;;;;9.77;2.47;;;13.30;99.90;;;12.57;100.00;101457.44;4170263;28;20025;-75
2023/10/14 06:10:50;;;;;;;7.15;1.98;;;13.30;99.90;;;12.54;100.00;101457.75;4170009;28;20018;-75
2023/10/14 06:12:52;;;;;;;7.43;2.08;;;13.30;99.90;;;12.54;100.00;101463.88;4152392;28;20030;-75
2023/10/14 06:14:53;;;;;;;5.97;1.73;;;13.30;99.90;;;12.57;100.00;101470.69;4152574;28;20114;-75
2023/10/14 06:16:57;;;;;;;6.15;1.70;;;13.30;99.90;;;12.57;100.00;101479.44;4168742;28;20029;-75
2023/10/14 06:19:04;;;;;;;9.48;2.47;;;13.30;99.90;;;12.53;100.00;101474.59;4152970;28;20080;-75
2023/10/14 06:21:08;;;;;;;8.45;2.20;;;13.30;99.90;;;12.54;100.00;101476.28;4152256;28;20525;-75
2023/10/14 06:23:09;;;;;;;11.50;1.88;;;13.30;99.90;;;12.54;100.00;101478.91;4169719;28;20064;-75
2023/10/14 06:25:15;;;;;;;10.00;2.47;;;13.20;99.90;;;12.51;100.00;101480.06;4169561;28;20405;-75
2023/10/14 06:27:22;;;;;;;11.30;1.80;;;13.20;99.90;;;12.54;100.00;101497.44;4140837;28;20045;-75
2023/10/14 06:29:23;;;;;;;7.75;1.77;;;13.30;99.90;;;12.54;100.00;101490.34;4153446;28;20044;-75
2023/10/14 06:31:24;;;;;;;6.22;1.95;;;13.20;99.90;;;12.55;100.00;101493.78;4153620;28;20033;-75
2023/10/14 06:33:26;;;;;;;11.23;3.17;;;13.20;99.90;;;12.50;100.00;101491.63;4153439;28;20044;-75
2023/10/14 06:35:27;;;;;;;7.47;2.17;;;13.20;99.90;;;12.53;100.00;101504.56;4136165;28;20022;-75
2023/10/14 06:37:28;;;;;;;12.02;2.63;;;13.20;99.90;;;12.54;100.00;101508.88;4153233;28;20096;-75
2023/10/14 06:39:38;;;;;;;6.68;2.40;;;13.30;99.90;;;12.53;100.00;101503.72;4153414;28;20026;-75
2023/10/14 06:41:43;;;;;;;9.30;1.90;;;13.30;99.90;;;12.54;100.00;101516.81;4153430;28;20047;-75
2023/10/14 06:43:47;;;;;;;10.07;2.15;;;13.20;99.90;;;12.55;100.00;101515.81;4136129;28;20066;-75
2023/10/14 06:45:51;;;;;;;8.75;1.73;;;13.30;99.90;;;12.56;100.00;101517.47;4135980;28;20040;-75
2023/10/14 06:47:56;;;;;;;10.45;2.97;;;13.30;99.90;;;12.57;100.00;101528.91;4136334;28;20045;-75
2023/10/14 06:49:57;;;;;;;9.75;1.70;;;13.30;99.90;;;12.59;100.00;101540.16;4146907;28;20093;-75
2023/10/14 06:51:59;;;;;;;8.80;2.75;;;13.30;99.90;;;12.57;100.00;101531.56;4154539;28;20037;-75
2023/10/14 06:54:00;;;;;;;7.88;1.50;;;13.30;99.90;;;12.56;100.00;101540.47;4135776;28;20026;-75
2023/10/14 06:56:01;;;;;;;6.72;2.15;;;13.30;99.90;;;12.62;100.00;101542.50;4135922;28;20029;-75
2023/10/14 06:58:05;;;;;;;12.00;3.17;;;13.30;99.90;;;12.62;100.00;101542.50;4153143;28;20026;-75
2023/10/14 07:00:12;;;;;;;14.75;1.95;;;13.30;99.90;;;12.63;100.00;101554.78;4136074;28;20022;-75
2023/10/14 07:02:12;;;;;;;13.77;2.97;;;13.30;99.90;;;12.61;100.00;101556.72;4153115;28;20030;-75
2023/10/14 07:04:16;;;;;;;12.35;2.47;;;13.30;99.90;;;12.62;100.00;101553.09;4153195;28;20466;-75
2023/10/14 07:06:18;;;;;;;11.38;2.03;;;13.40;99.90;;;12.64;100.00;101559.06;4152783;28;20030;-75
2023/10/14 07:08:19;;;;;;;9.02;2.70;;;13.30;99.90;;;12.67;100.00;101556.97;4152800;28;20038;-75
2023/10/14 07:10:27;;;;;;;8.98;1.98;;;13.40;99.90;;;12.69;100.00;101559.47;4152954;28;20397;-75
2023/10/14 07:12:29;;;;;;;6.72;2.33;;;13.40;99.90;;;12.73;100.00;101553.72;4152668;28;20414;-75
2023/10/14 07:14:30;;;;;;;10.35;1.67;;;13.40;99.90;;;12.79;100.00;101560.22;4165933;28;20488;-75
2023/10/14 07:16:32;;;;;;;11.55;3.20;;;13.50;99.90;;;12.73;100.00;101561.66;4151323;28;20033;-75
2023/10/14 07:18:38;;;;;;;12.63;2.35;;;13.50;99.90;;;12.82;100.00;101569.69;4169266;28;20385;-75
2023/10/14 07:20:40;;;;;;;7.38;1.63;;;13.50;99.90;;;12.90;100.00;101567.13;4141000;28;20109;-75
2023/10/14 07:22:42;;;;;;;7.55;1.85;;;13.60;99.90;;;12.98;100.00;101570.69;4134778;28;20465;-75
2023/10/14 07:24:42;;;;;;;7.72;1.35;;;13.60;99.90;;;13.03;100.00;101572.88;4135452;28;20034;-75
2023/10/14 07:26:43;;;;;;;8.82;2.60;;;13.70;99.90;;;13.02;100.00;101561.44;4152872;28;20034;-75
2023/10/14 07:28:51;;;;;;;7.00;2.08;;;13.70;99.90;;;13.07;100.00;101566.28;4144362;28;20038;-74
2023/10/14 07:30:55;;;;;;;9.10;2.42;;;13.70;99.90;;;13.11;100.00;101571.16;4136379;28;20482;-74
2023/10/14 07:32:56;;;;;;;15.18;5.13;;;13.80;99.90;;;13.13;100.00;101571.00;4152369;28;20026;-75
2023/10/14 07:35:02;;;;;;;8.48;2.88;;;13.80;99.90;;;13.21;100.00;101573.72;4152232;28;20034;-75
2023/10/14 07:37:02;;;;;;;9.23;1.80;;;13.80;99.90;;;13.26;100.00;101572.28;4151429;28;20393;-75
2023/10/14 07:39:27;;;;;;;12.48;2.47;;;13.90;99.90;;;13.28;100.00;101578.28;4151804;28;20077;-75
2023/10/14 07:41:26;;;;;;;9.02;1.90;;;13.90;99.90;;;13.31;100.00;101582.44;4158750;28;20448;-75
2023/10/14 07:43:27;;;;;;;10.18;2.38;;;13.90;99.90;;;13.36;100.00;101585.44;4139076;28;20015;-75
2023/10/14 07:45:33;;;;;;;8.98;2.20;;;14.00;99.90;;;13.41;100.00;101580.50;4151732;28;20037;-75
2023/10/14 07:47:34;;;;;;;12.13;2.17;;;14.10;99.90;;;13.48;100.00;101591.31;4141591;28;20030;-74
2023/10/14 07:49:35;;;;;;;6.63;1.65;;;14.10;99.90;;;13.51;100.00;101598.97;4149714;28;20136;-74
2023/10/14 07:51:36;;;;;;;8.65;2.08;;;14.10;99.90;;;13.52;100.00;101593.53;4151021;28;20021;-74
2023/10/14 07:53:37;;;;;;;8.57;1.75;;;14.20;99.90;;;13.63;100.00;101592.44;4145050;28;20077;-74
2023/10/14 07:55:48;;;;;;;10.13;2.47;;;14.20;99.90;;;13.60;100.00;101592.75;4150528;28;20030;-74
2023/10/14 07:57:49;;;;;;;11.27;1.95;;;14.20;99.90;;;13.68;100.00;101603.41;4167208;28;20029;-74
2023/10/14 07:59:54;;;;;;;9.40;1.80;;;14.30;99.90;;;13.74;100.00;101600.13;4150982;28;20033;-74
2023/10/14 08:01:56;;;;;;;11.95;2.22;;;14.30;99.90;;;13.80;99.31;101602.16;4168846;28;20025;-75
2023/10/14 08:03:57;;;;;;;8.13;1.98;;;14.40;99.90;;;13.89;98.53;101603.06;4161701;28;20030;-74
2023/10/14 08:05:59;;;;;;;10.40;2.20;;;14.40;99.90;;;14.00;98.43;101606.28;4152428;28;20041;-75
2023/10/14 08:08:06;;;;;;;13.82;2.50;;;14.50;99.90;;;13.99;97.84;101603.78;4134573;28;20030;-75
2023/10/14 08:10:18;;;;;;;8.75;2.20;;;14.60;99.90;;;14.01;97.29;101607.13;4135541;28;20038;-74
2023/10/14 08:12:19;;;;;;;10.98;2.60;;;14.60;99.90;;;14.06;97.39;101612.78;4152227;28;20535;-74
2023/10/14 08:14:19;;;;;;;12.98;2.22;;;14.70;99.90;;;14.04;96.19;101620.03;4156176;28;20030;-75
2023/10/14 08:16:22;;;;;;;7.22;2.08;;;14.70;99.90;;;14.15;95.70;101620.63;4134668;28;20026;-75
2023/10/14 08:18:23;;;;;;;11.15;2.65;;;14.70;99.90;;;14.17;94.76;101628.41;4153091;28;20443;-74
2023/10/14 08:20:27;;;;;;;9.38;1.63;;;14.80;99.90;;;14.15;93.53;101633.91;4159446;28;20113;-74
2023/10/14 08:22:28;;;;;;;8.85;2.28;;;14.80;99.90;;;14.15;92.76;101625.09;4153161;28;20032;-75
2023/10/14 08:24:29;;;;;;;8.35;1.88;;;14.80;99.90;;;14.26;93.22;101636.28;4152491;28;20038;-74
2023/10/14 08:26:30;;;;;;;7.10;2.20;;;14.90;99.90;;;14.34;93.81;101632.84;4152136;28;20038;-74
2023/10/14 08:28:33;;;;;;;11.95;2.42;;;14.90;99.90;;;14.42;93.25;101638.22;4152131;28;20033;-74
2023/10/14 08:30:46;;;;;;;8.68;1.88;;;15.00;99.90;;;14.45;92.39;101642.38;4162712;28;20028;-74
2023/10/14 08:32:46;;;;;;;6.40;1.25;;;15.10;99.90;;;14.38;91.61;101643.00;4147772;28;20460;-74
2023/10/14 08:34:47;;;;;;;5.07;1.77;;;15.10;99.90;;;14.51;91.93;101653.19;4143186;28;20042;-74
2023/10/14 08:36:48;;;;;;;6.97;1.45;;;15.10;99.90;;;14.63;91.59;101664.34;4154307;28;20512;-74
2023/10/14 08:38:49;;;;;;;7.35;1.80;;;15.20;99.90;;;14.49;90.51;101660.47;4151001;28;20492;-75
2023/10/14 08:40:59;;;;;;;8.93;2.53;;;15.20;99.90;;;14.60;91.10;101672.66;4150019;28;20026;-74
2023/10/14 08:43:05;;;;;;;9.90;1.98;;;15.20;99.90;;;14.70;91.16;101662.72;4124280;28;20453;-74
2023/10/14 08:45:10;;;;;;;9.73;2.17;;;15.30;99.90;;;14.80;89.90;101661.59;4137610;28;20031;-73
2023/10/14 08:47:15;;;;;;;4.63;0.98;;;15.40;99.90;;;14.99;90.01;101659.66;4135275;28;20034;-73
2023/10/14 08:49:23;;;;;;;12.43;2.10;;;15.50;99.90;;;15.19;90.68;101664.53;4137645;28;20105;-74
2023/10/14 08:51:25;;;;;;;5.45;1.80;;;15.60;99.90;;;15.18;91.77;101673.47;4154255;28;20029;-74